Meteo Giornale » Osservazioni meteo Italia » Palermo-Punta Raisi

ore: 17:50 - Osservazioni Meteo Palermo-Punta Raisi
Lat. 38° 11' N Lon. 13° 6' E Alt. 21 metri s.l.m.

molto_nuvoloso Europe/Rome

19 °C

Molto Nuvoloso

Temp. 24 Ore

18 °C

26 °C

Sud

13 Km/h

Dew point 13 °C

Umidità 68 %

Visibilità  10 Km

Il sole sorge alle ore 07:18

Il sole tramonta alle ore 18:27

Data e Ora Cielo e Fenomeni T °C DP °C Um. % Pres. hPa Vis. km Vento km/h
Oggi h: 17:50 molto_nuvoloso Molto Nuvoloso 19 13 68 1008 10 S 13
Oggi h: 17:20 coperto_pioggia Pioggia Debole Rovescio nelle Vicinanze 18 14 77 1009 10 S 25.9
Oggi h: 16:50 nuvoloso_temporali Temporale con Pioggia 22 14 60 1009 9 S 24
Oggi h: 16:20 molto_nuvoloso Rovescio nelle Vicinanze 22 19 83 1007 9 NE 13
Oggi h: 15:50 nuvoloso Rovescio nelle Vicinanze 23 19 78 1007 9 NE 16.7
Oggi h: 15:20 nuvoloso Rovescio nelle Vicinanze 22 19 83 1007 9 N/NE 18.5
Oggi h: 13:50 nuvoloso_temporali Temporale con Pioggia Debole 22 18 78 1008 10 E 14.8
Oggi h: 13:20 nuvoloso_temporali Temporale con Pioggia Debole 23 18 73 1009 10 SE 11.1
Oggi h: 12:50 nuvoloso Nuvoloso 24 17 64 1009 10 O/SO 7.4
Oggi h: 12:20 poco_nuvoloso Poco Nuvoloso 24 17 64 1009 10 O 16.7
Oggi h: 11:50 poco_nuvoloso Poco Nuvoloso 26 14 47 1008 10 E/NE 18.5
Oggi h: 11:20 sereno Sereno 25 14 50 1008 10 E/NE 18.5
Oggi h: 10:50 sereno Sereno 24 14 53 1008 10 E/NE 22.2
Oggi h: 10:20 sereno Sereno 24 14 53 1008 10 E 27.8
Oggi h: 09:50 sereno Sereno 25 14 50 1008 10 E 31.5
Oggi h: 09:20 coperto_pioggia Pioggia Debole 25 14 50 1008 10 E 31.5
Oggi h: 08:50 sereno Sereno 25 14 50 1008 10 E 31.5
Oggi h: 08:20 sereno Sereno 24 15 57 1008 10 E/SE 24
Oggi h: 07:50 sereno Sereno 23 14 56 1008 10 S/SE 9.3
Oggi h: 07:20 sereno Sereno 23 14 56 1008 10 E/NE 18.5
Oggi h: 06:50 sereno Sereno 22 14 60 1008 10 N 7.4
Oggi h: 06:20 sereno Sereno 22 14 60 1008 10 E 18.5
Oggi h: 05:50 sereno Sereno 22 14 60 1007 10 E/NE 25.9
Oggi h: 05:20 sereno Sereno 22 14 60 1007 10 E 25.9
Oggi h: 04:50 sereno Sereno 23 15 60 1007 10 E 29.6
Oggi h: 04:20 sereno Sereno 22 15 64 1008 10 E 14.8
Oggi h: 03:50 sereno Sereno 23 14 56 1008 10 NE 9.3
Oggi h: 03:20 sereno Sereno 22 14 60 1008 10 N 5.5
Oggi h: 02:50 sereno Sereno 21 15 68 1009 10 NE 7.4
Oggi h: 02:20 sereno Sereno 21 14 64 1009 10 E/NE 13
Oggi h: 01:50 sereno Sereno 21 15 68 1010 10 E/NE 13
Oggi h: 01:20 sereno Sereno 22 15 64 1010 10 NE 13
Oggi h: 00:50 sereno Sereno 22 17 73 1010 10 N 9.3
Oggi h: 00:20 sereno Sereno 21 17 77 1010 10 E/NE 9.3
Ieri h: 23:50 sereno Sereno 21 17 77 1011 10 N 3.7
Ieri h: 23:20 sereno Sereno 21 18 82 1011 10 S/SO 9.3
Ieri h: 22:50 sereno Sereno 22 15 64 1011 10 N 3.7
Ieri h: 22:20 sereno Sereno 22 16 68 1011 10 E 16.7
Ieri h: 21:50 sereno Sereno 21 18 82 1011 10 E/SE 9.3
Ieri h: 21:20 sereno Sereno 22 16 68 1011 10 E/SE 7.4
Ieri h: 20:50 sereno Sereno 22 17 73 1011 10 E/NE 18.5
Ieri h: 20:20 sereno Sereno 22 16 68 1011 10 E/NE 13
Ieri h: 19:50 sereno Sereno 22 18 78 1011 10 N 3.7
Ieri h: 19:20 sereno Sereno 23 19 78 1011 10 N 3.7